createdAt,value
2019-01-02T00:00:33.718Z,1.70
2019-01-02T00:03:02.690Z,1.70
2019-01-02T00:05:32.059Z,1.70
2019-01-02T00:08:01.022Z,1.70
2019-01-02T00:10:30.098Z,1.70
2019-01-02T00:12:59.014Z,1.60
2019-01-02T00:15:28.340Z,1.60
2019-01-02T00:17:57.179Z,1.60
2019-01-02T00:20:26.283Z,1.60
2019-01-02T00:22:55.135Z,1.70
2019-01-02T00:25:23.979Z,1.60
2019-01-02T00:27:53.230Z,1.60
2019-01-02T00:30:22.139Z,1.60
2019-01-02T00:32:51.267Z,1.70
2019-01-02T00:35:20.225Z,1.70
2019-01-02T00:37:49.416Z,1.70
2019-01-02T00:40:18.335Z,1.70
2019-01-02T00:42:47.976Z,1.60
2019-01-02T00:45:22.320Z,1.60
2019-01-02T00:47:47.952Z,1.60
2019-01-02T00:50:16.771Z,1.50
2019-01-02T00:52:45.632Z,1.50
2019-01-02T00:55:14.622Z,1.50
2019-01-02T00:57:43.551Z,1.50
2019-01-02T01:00:15.816Z,1.50
2019-01-02T01:02:44.651Z,1.40
2019-01-02T01:05:13.782Z,1.40
2019-01-02T01:07:43.066Z,1.40
2019-01-02T01:10:13.987Z,1.40
2019-01-02T01:12:43.295Z,1.40
2019-01-02T01:15:12.185Z,1.30
2019-01-02T01:17:41.597Z,1.10
2019-01-02T01:20:11.576Z,0.90
2019-01-02T01:22:40.434Z,0.90
2019-01-02T01:25:09.399Z,0.80
2019-01-02T01:27:38.238Z,0.70
2019-01-02T01:30:08.479Z,0.70
2019-01-02T01:32:37.332Z,0.60
2019-01-02T01:35:08.243Z,0.50
2019-01-02T01:37:37.361Z,0.40
2019-01-02T01:40:08.475Z,0.50
2019-01-02T01:42:37.312Z,0.40
2019-01-02T01:45:08.260Z,0.40
2019-01-02T01:47:37.023Z,0.40
2019-01-02T01:50:06.623Z,0.40
2019-01-02T01:52:35.525Z,0.40
2019-01-02T01:55:04.597Z,0.60
2019-01-02T01:57:33.446Z,0.70
2019-01-02T02:00:02.290Z,0.80
2019-01-02T02:02:31.437Z,0.90
2019-01-02T02:05:00.238Z,0.90
2019-01-02T02:07:29.009Z,1.00
2019-01-02T02:09:57.953Z,1.00
2019-01-02T02:12:26.964Z,1.00
2019-01-02T02:14:56.117Z,1.00
2019-01-02T02:17:25.285Z,1.10
2019-01-02T02:19:54.313Z,1.10
2019-01-02T02:22:23.454Z,1.10
2019-01-02T02:24:52.312Z,1.10
2019-01-02T02:27:21.170Z,1.10
2019-01-02T02:29:50.044Z,1.20
2019-01-02T02:32:18.950Z,1.20
2019-01-02T02:34:47.812Z,1.30
2019-01-02T02:37:16.600Z,1.30
2019-01-02T02:39:45.390Z,1.30
2019-01-02T02:42:14.448Z,1.30
2019-01-02T02:44:43.607Z,1.20
2019-01-02T02:47:12.801Z,1.10
2019-01-02T02:49:41.589Z,1.10
2019-01-02T02:52:10.692Z,1.00
2019-01-02T02:54:39.479Z,1.10
2019-01-02T02:57:08.256Z,1.00
2019-01-02T02:59:37.038Z,0.90
2019-01-02T03:02:06.245Z,0.90
2019-01-02T03:04:35.332Z,1.10
2019-01-02T03:07:04.509Z,1.20
2019-01-02T03:09:33.296Z,1.30
2019-01-02T03:12:02.178Z,1.40
2019-01-02T03:14:30.982Z,1.40
2019-01-02T03:17:00.110Z,1.50
2019-01-02T03:19:29.307Z,1.50
2019-01-02T03:21:58.689Z,1.50
2019-01-02T03:24:27.665Z,1.50
2019-01-02T03:26:56.606Z,1.60
2019-01-02T03:29:25.374Z,1.50
2019-01-02T03:31:54.525Z,1.60
2019-01-02T03:34:23.667Z,1.60
2019-01-02T03:36:52.522Z,1.60
2019-01-02T03:39:21.563Z,1.60
2019-01-02T03:41:50.749Z,1.70
2019-01-02T03:44:19.522Z,1.60
2019-01-02T03:46:48.310Z,1.50
2019-01-02T03:49:17.094Z,1.60
2019-01-02T03:51:46.118Z,1.60
2019-01-02T03:54:15.133Z,1.60
2019-01-02T03:56:43.914Z,1.60
2019-01-02T03:59:12.839Z,1.60
2019-01-02T04:01:41.621Z,1.60
2019-01-02T04:04:10.412Z,1.70
2019-01-02T04:06:39.190Z,1.70
2019-01-02T04:09:10.134Z,1.70
2019-01-02T04:11:38.902Z,1.70
2019-01-02T04:14:07.760Z,1.70
2019-01-02T04:16:36.627Z,1.70
2019-01-02T04:19:05.857Z,1.70
2019-01-02T04:21:34.648Z,1.70
2019-01-02T04:24:03.568Z,1.60
2019-01-02T04:26:32.346Z,1.70
2019-01-02T04:29:01.194Z,1.70
2019-01-02T04:31:29.985Z,1.70
2019-01-02T04:33:59.244Z,1.70
2019-01-02T04:36:28.036Z,1.80
2019-01-02T04:38:56.891Z,1.80
2019-01-02T04:41:25.737Z,1.80
2019-01-02T04:43:54.611Z,1.70
2019-01-02T04:46:23.480Z,1.70
2019-01-02T04:48:52.392Z,1.70
2019-01-02T04:51:21.414Z,1.70
2019-01-02T04:53:50.343Z,1.70
2019-01-02T04:56:19.260Z,1.70
2019-01-02T04:58:48.092Z,1.70
2019-01-02T05:01:17.450Z,1.60
2019-01-02T05:03:46.316Z,1.70
2019-01-02T05:06:15.409Z,1.70
2019-01-02T05:08:44.216Z,1.70
2019-01-02T05:11:13.563Z,1.80
2019-01-02T05:13:42.678Z,1.80
2019-01-02T05:16:11.657Z,1.80
2019-01-02T05:18:40.467Z,1.80
2019-01-02T05:21:09.331Z,1.90
2019-01-02T05:23:38.464Z,1.90
2019-01-02T05:26:07.225Z,1.90
2019-01-02T05:28:36.139Z,1.90
2019-01-02T05:31:05.130Z,1.90
2019-01-02T05:33:34.027Z,1.90
2019-01-02T05:36:02.830Z,2.00
2019-01-02T05:38:31.604Z,1.90
2019-01-02T05:41:00.397Z,1.90
2019-01-02T05:43:29.241Z,1.90
2019-01-02T05:45:58.163Z,1.90
2019-01-02T05:48:27.018Z,1.90
2019-01-02T05:50:55.945Z,1.90
2019-01-02T05:53:24.713Z,1.90
2019-01-02T05:55:53.659Z,1.90
2019-01-02T05:58:22.473Z,1.90
2019-01-02T06:00:51.267Z,1.80
2019-01-02T06:03:20.043Z,1.90
2019-01-02T06:05:48.902Z,1.90
2019-01-02T06:08:17.783Z,1.80
2019-01-02T06:10:46.647Z,1.70
2019-01-02T06:13:15.682Z,1.70
2019-01-02T06:15:44.601Z,1.70
2019-01-02T06:18:13.416Z,1.60
2019-01-02T06:20:42.206Z,1.50
2019-01-02T06:23:10.978Z,1.30
2019-01-02T06:25:39.749Z,1.10
2019-01-02T06:28:08.605Z,1.10
2019-01-02T06:30:37.370Z,1.10
2019-01-02T06:33:06.977Z,1.20
2019-01-02T06:35:36.241Z,1.20
2019-01-02T06:38:05.561Z,1.10
2019-01-02T06:40:34.593Z,1.10
2019-01-02T06:43:03.724Z,1.00
2019-01-02T06:45:32.554Z,0.80
2019-01-02T06:48:01.338Z,0.60
2019-01-02T06:50:30.120Z,0.50
2019-01-02T06:52:58.919Z,0.40
2019-01-02T06:55:27.933Z,0.50
2019-01-02T06:57:56.792Z,0.50
2019-01-02T07:00:31.438Z,0.60
2019-01-02T07:03:00.225Z,0.60
2019-01-02T07:05:29.299Z,0.60
2019-01-02T07:07:58.312Z,0.70
2019-01-02T07:10:27.248Z,0.80
2019-01-02T07:12:56.053Z,1.00
2019-01-02T07:15:24.910Z,1.10
2019-01-02T07:17:53.685Z,1.20
2019-01-02T07:20:22.817Z,1.20
2019-01-02T07:22:51.593Z,1.10
2019-01-02T07:25:20.386Z,1.10
2019-01-02T07:27:49.409Z,1.20
2019-01-02T07:30:20.754Z,1.10
2019-01-02T07:32:49.763Z,1.00
2019-01-02T07:36:03.792Z,1.00
2019-01-02T07:38:49.745Z,1.20
2019-01-02T07:42:06.194Z,1.30
2019-01-02T07:45:08.201Z,1.40
2019-01-02T07:48:10.415Z,1.40
2019-01-02T07:51:25.831Z,1.50
2019-01-02T07:54:29.031Z,1.60
2019-01-02T07:57:48.044Z,1.80
2019-01-02T08:00:35.197Z,1.70
2019-01-02T08:03:40.122Z,1.70
2019-01-02T08:06:31.051Z,1.60
2019-01-02T08:09:49.393Z,1.50
2019-01-02T08:12:40.750Z,1.60
2019-01-02T08:15:45.554Z,1.80
2019-01-02T08:18:37.123Z,2.00
2019-01-02T08:21:44.067Z,2.00
2019-01-02T08:24:45.091Z,1.80
2019-01-02T08:28:10.060Z,1.90
2019-01-02T08:30:52.674Z,2.00
2019-01-02T08:34:08.127Z,2.00
2019-01-02T08:37:03.821Z,2.00
2019-01-02T08:40:14.095Z,1.90
2019-01-02T08:43:27.376Z,1.70
2019-01-02T08:46:31.878Z,1.90
2019-01-02T08:49:24.250Z,2.00
2019-01-02T08:52:44.450Z,2.20
2019-01-02T08:55:47.746Z,2.30
2019-01-02T08:58:52.725Z,2.40
2019-01-02T09:02:00.843Z,2.50
2019-01-02T09:05:22.715Z,2.60
2019-01-02T09:08:24.054Z,2.60
2019-01-02T09:11:46.195Z,2.70
2019-01-02T09:15:04.175Z,2.70
2019-01-02T09:18:09.398Z,2.70
2019-01-02T09:21:22.328Z,2.70
2019-01-02T09:24:22.589Z,2.80
2019-01-02T09:27:29.678Z,2.80
2019-01-02T09:30:48.717Z,2.80
2019-01-02T09:33:40.914Z,2.80
2019-01-02T09:36:30.161Z,2.90
2019-01-02T09:39:41.833Z,2.90
2019-01-02T09:42:44.121Z,2.90
2019-01-02T09:46:01.817Z,2.80
2019-01-02T09:49:09.922Z,2.70
2019-01-02T09:52:24.884Z,2.60
2019-01-02T09:55:16.977Z,2.50
2019-01-02T09:58:45.183Z,2.50
2019-01-02T10:01:32.645Z,2.60
2019-01-02T10:04:41.542Z,2.60
2019-01-02T10:07:47.006Z,2.70
2019-01-02T10:10:58.018Z,2.80
2019-01-02T10:14:11.025Z,2.90
2019-01-02T10:17:06.482Z,3.10
2019-01-02T10:20:09.381Z,3.20
2019-01-02T10:23:15.801Z,3.30
2019-01-02T10:26:20.459Z,3.70
2019-01-02T10:29:38.618Z,3.90
2019-01-02T10:32:29.083Z,3.90
2019-01-02T10:35:25.008Z,3.90
2019-01-02T10:38:50.291Z,4.00
2019-01-02T10:42:21.479Z,3.90
2019-01-02T10:45:52.743Z,3.70
2019-01-02T10:48:49.938Z,3.50
2019-01-02T10:51:55.829Z,3.60
2019-01-02T10:54:53.934Z,3.30
2019-01-02T10:57:55.905Z,3.20
2019-01-02T11:01:09.366Z,3.40
2019-01-02T11:04:07.662Z,3.40
2019-01-02T11:07:17.057Z,3.40
2019-01-02T11:10:31.966Z,3.40
2019-01-02T11:13:53.974Z,3.60
2019-01-02T11:17:02.861Z,3.80
2019-01-02T11:19:55.750Z,4.10
2019-01-02T11:23:00.836Z,4.00
2019-01-02T11:26:16.995Z,3.50
2019-01-02T11:29:17.904Z,3.70
2019-01-02T11:32:26.954Z,3.90
2019-01-02T11:35:48.006Z,4.00
2019-01-02T11:38:46.885Z,3.90
2019-01-02T11:41:42.077Z,3.90
2019-01-02T11:45:01.662Z,4.10
2019-01-02T11:47:30.450Z,4.20
2019-01-02T11:49:59.247Z,4.10
2019-01-02T11:52:28.001Z,3.80
2019-01-02T11:54:56.809Z,3.50
2019-01-02T11:57:25.868Z,3.30
2019-01-02T11:59:55.053Z,3.20
2019-01-02T12:02:23.813Z,3.20
2019-01-02T12:04:52.686Z,3.30
2019-01-02T12:07:21.533Z,3.70
2019-01-02T12:09:50.392Z,3.90
2019-01-02T12:12:19.493Z,3.90
2019-01-02T12:14:48.421Z,4.00
2019-01-02T12:17:17.209Z,4.10
2019-01-02T12:19:45.998Z,4.10
2019-01-02T12:22:14.782Z,4.10
2019-01-02T12:24:43.941Z,4.10
2019-01-02T12:27:12.821Z,4.20
2019-01-02T12:29:41.645Z,4.20
2019-01-02T12:32:10.466Z,4.40
2019-01-02T12:34:39.386Z,4.40
2019-01-02T12:37:08.496Z,4.40
2019-01-02T12:39:37.710Z,4.60
2019-01-02T12:42:06.596Z,4.50
2019-01-02T12:44:35.392Z,4.40
2019-01-02T12:47:04.614Z,4.30
2019-01-02T12:49:33.374Z,4.10
2019-01-02T12:52:02.161Z,4.10
2019-01-02T12:54:30.929Z,4.10
2019-01-02T12:56:59.778Z,4.00
2019-01-02T12:59:28.953Z,3.90
2019-01-02T13:02:16.274Z,3.60
2019-01-02T13:05:03.276Z,3.40
2019-01-02T13:08:14.574Z,3.20
2019-01-02T13:10:58.045Z,2.90
2019-01-02T13:13:44.669Z,2.70
2019-01-02T13:17:00.962Z,2.60
2019-01-02T13:20:06.872Z,2.60
2019-01-02T13:23:03.621Z,2.50
2019-01-02T13:26:00.697Z,2.40
2019-01-02T13:28:40.577Z,2.40
2019-01-02T13:31:52.869Z,2.30
2019-01-02T13:35:11.999Z,2.30
2019-01-02T13:38:27.353Z,2.20
2019-01-02T13:41:15.536Z,2.30
2019-01-02T13:44:10.254Z,2.30
2019-01-02T13:47:29.190Z,2.30
2019-01-02T13:50:28.716Z,2.20
2019-01-02T13:52:59.257Z,2.20
2019-01-02T13:55:28.017Z,2.30
2019-01-02T13:57:56.802Z,2.50
2019-01-02T14:00:25.569Z,2.60
2019-01-02T14:02:54.350Z,2.60
2019-01-02T14:05:23.948Z,2.70
2019-01-02T14:07:52.734Z,2.50
2019-01-02T14:10:21.580Z,2.40
2019-01-02T14:12:51.024Z,2.20
2019-01-02T14:15:19.817Z,2.10
2019-01-02T14:17:48.654Z,2.10
2019-01-02T14:20:17.443Z,2.00
2019-01-02T14:22:46.201Z,1.90
2019-01-02T14:25:14.973Z,1.80
2019-01-02T14:27:44.026Z,1.60
2019-01-02T14:30:13.193Z,1.50
2019-01-02T14:32:41.997Z,1.50
2019-01-02T14:35:11.154Z,1.60
2019-01-02T14:37:40.209Z,1.70
2019-01-02T14:40:09.662Z,1.70
2019-01-02T14:42:38.687Z,1.70
2019-01-02T14:45:08.336Z,1.60
2019-01-02T14:47:37.117Z,1.50
2019-01-02T14:50:06.790Z,1.30
2019-01-02T14:52:35.558Z,1.30
2019-01-02T14:55:04.485Z,1.20
2019-01-02T14:57:33.373Z,1.20
2019-01-02T15:00:02.269Z,1.10
2019-01-02T15:02:31.043Z,0.90
2019-01-02T15:05:00.051Z,0.90
2019-01-02T15:07:29.002Z,0.90
2019-01-02T15:09:57.829Z,0.70
2019-01-02T15:12:26.760Z,0.60
2019-01-02T15:14:55.565Z,0.60
2019-01-02T15:17:25.356Z,0.50
2019-01-02T15:19:54.365Z,0.40
2019-01-02T15:22:23.207Z,0.40
2019-01-02T15:24:52.219Z,0.40
2019-01-02T15:27:21.005Z,0.30
2019-01-02T15:29:50.082Z,0.20
2019-01-02T15:32:18.954Z,0.20
2019-01-02T15:34:47.718Z,0.20
2019-01-02T15:37:16.577Z,0.00
2019-01-02T15:39:45.425Z,0.00
2019-01-02T15:42:14.202Z,-0.10
2019-01-02T15:44:43.063Z,-0.10
2019-01-02T15:47:11.854Z,-0.20
2019-01-02T15:49:40.735Z,-0.40
2019-01-02T15:52:09.513Z,-0.30
2019-01-02T15:54:38.723Z,-0.50
2019-01-02T15:57:07.701Z,-0.50
2019-01-02T15:59:36.493Z,-0.50
2019-01-02T16:02:05.641Z,-0.70
2019-01-02T16:04:34.518Z,-0.90
2019-01-02T16:07:03.626Z,-1.10
2019-01-02T16:09:32.570Z,-1.10
2019-01-02T16:12:01.362Z,-1.10
2019-01-02T16:14:30.478Z,-1.10
2019-01-02T16:16:59.658Z,-1.30
2019-01-02T16:19:28.831Z,-1.40
2019-01-02T16:21:57.806Z,-1.60
2019-01-02T16:24:26.876Z,-1.70
2019-01-02T16:26:55.670Z,-1.90
2019-01-02T16:29:24.891Z,-2.00
2019-01-02T16:31:53.922Z,-2.00
2019-01-02T16:34:22.805Z,-1.90
2019-01-02T16:36:51.661Z,-1.90
2019-01-02T16:39:20.462Z,-2.00
2019-01-02T16:41:49.274Z,-2.10
2019-01-02T16:44:18.139Z,-2.20
2019-01-02T16:46:47.046Z,-2.30
2019-01-02T16:49:16.640Z,-2.20
2019-01-02T16:51:46.081Z,-2.30
2019-01-02T16:54:15.677Z,-2.50
2019-01-02T16:56:45.433Z,-2.60
2019-01-02T16:59:14.962Z,-2.70
2019-01-02T17:01:45.311Z,-2.80
2019-01-02T17:04:14.118Z,-2.90
2019-01-02T17:06:43.117Z,-2.80
2019-01-02T17:09:12.033Z,-2.90
2019-01-02T17:11:41.286Z,-2.90
2019-01-02T17:14:10.199Z,-2.90
2019-01-02T17:16:39.045Z,-3.10
2019-01-02T17:19:07.910Z,-3.20
2019-01-02T17:21:36.843Z,-3.30
2019-01-02T17:24:05.632Z,-3.40
2019-01-02T17:26:34.388Z,-3.50
2019-01-02T17:29:03.191Z,-3.60
2019-01-02T17:31:32.215Z,-3.70
2019-01-02T17:34:01.322Z,-3.80
2019-01-02T17:36:30.086Z,-3.80
2019-01-02T17:38:59.110Z,-3.80
2019-01-02T17:41:31.111Z,-3.90
2019-01-02T17:43:59.895Z,-3.90
2019-01-02T17:46:28.693Z,-4.00
2019-01-02T17:48:57.714Z,-4.10
2019-01-02T17:51:26.514Z,-4.20
2019-01-02T17:53:55.541Z,-4.20
2019-01-02T17:56:24.331Z,-4.40
2019-01-02T17:58:53.184Z,-4.50
2019-01-02T18:01:22.117Z,-4.50
2019-01-02T18:03:50.901Z,-4.60
2019-01-02T18:06:19.761Z,-4.80
2019-01-02T18:08:48.535Z,-4.80
2019-01-02T18:11:17.339Z,-5.00
2019-01-02T18:13:46.114Z,-5.10
2019-01-02T18:16:16.264Z,-5.10
2019-01-02T18:18:45.374Z,-5.10
2019-01-02T18:21:14.225Z,-5.20
2019-01-02T18:23:42.987Z,-5.30
2019-01-02T18:26:12.022Z,-5.30
2019-01-02T18:28:41.030Z,-5.40
2019-01-02T18:31:09.839Z,-5.40
2019-01-02T18:33:38.931Z,-5.50
2019-01-02T18:36:08.009Z,-5.60
2019-01-02T18:38:36.774Z,-5.60
2019-01-02T18:41:05.674Z,-5.60
2019-01-02T18:43:34.439Z,-5.70
2019-01-02T18:46:03.301Z,-5.60
2019-01-02T18:48:32.073Z,-5.40
2019-01-02T18:51:00.922Z,-5.50
2019-01-02T18:53:29.697Z,-5.60
2019-01-02T18:55:58.866Z,-5.70
2019-01-02T18:58:27.677Z,-5.70
2019-01-02T19:00:56.465Z,-5.70
2019-01-02T19:03:25.245Z,-5.80
2019-01-02T19:05:54.023Z,-5.90
2019-01-02T19:08:23.049Z,-5.90
2019-01-02T19:10:51.825Z,-5.90
2019-01-02T19:13:21.018Z,-6.00
2019-01-02T19:15:49.883Z,-6.00
2019-01-02T19:18:18.665Z,-6.10
2019-01-02T19:20:47.776Z,-6.10
2019-01-02T19:23:16.793Z,-6.20
2019-01-02T19:25:45.563Z,-6.00
2019-01-02T19:28:14.359Z,-5.90
2019-01-02T19:30:43.133Z,-5.90
2019-01-02T19:33:11.905Z,-5.90
2019-01-02T19:35:40.746Z,-5.90
2019-01-02T19:38:09.526Z,-6.00
2019-01-02T19:40:38.308Z,-6.00
2019-01-02T19:43:07.107Z,-6.10
2019-01-02T19:45:35.873Z,-6.10
2019-01-02T19:48:04.654Z,-6.00
2019-01-02T19:50:33.833Z,-6.00
2019-01-02T19:53:02.643Z,-6.00
2019-01-02T19:55:31.521Z,-6.00
2019-01-02T19:58:00.318Z,-6.10
2019-01-02T20:00:29.086Z,-6.20
2019-01-02T20:02:57.885Z,-6.20
2019-01-02T20:05:26.721Z,-6.10
2019-01-02T20:07:55.868Z,-6.00
2019-01-02T20:10:24.703Z,-6.00
2019-01-02T20:12:53.537Z,-5.90
2019-01-02T20:15:22.309Z,-5.80
2019-01-02T20:17:51.103Z,-5.80
2019-01-02T20:20:19.875Z,-5.90
2019-01-02T20:22:48.927Z,-6.00
2019-01-02T20:25:17.786Z,-6.00
2019-01-02T20:27:46.674Z,-6.10
2019-01-02T20:30:15.463Z,-6.20
2019-01-02T20:32:44.260Z,-6.30
2019-01-02T20:35:13.157Z,-6.30
2019-01-02T20:37:42.221Z,-6.40
2019-01-02T20:40:11.103Z,-6.40
2019-01-02T20:42:39.917Z,-6.40
2019-01-02T20:45:08.772Z,-6.40
2019-01-02T20:47:37.901Z,-6.40
2019-01-02T20:50:08.525Z,-6.30
2019-01-02T20:52:37.312Z,-6.20
2019-01-02T20:55:06.501Z,-6.10
2019-01-02T20:57:35.296Z,-6.10
2019-01-02T21:00:04.646Z,-6.20
2019-01-02T21:02:33.566Z,-6.30
2019-01-02T21:05:02.346Z,-6.40
2019-01-02T21:07:31.109Z,-6.50
2019-01-02T21:09:59.890Z,-6.50
2019-01-02T21:12:28.922Z,-6.60
2019-01-02T21:14:57.753Z,-6.60
2019-01-02T21:17:26.529Z,-6.60
2019-01-02T21:19:55.572Z,-6.50
2019-01-02T21:22:24.421Z,-6.20
2019-01-02T21:24:53.303Z,-6.10
2019-01-02T21:27:22.113Z,-6.10
2019-01-02T21:29:51.146Z,-6.10
2019-01-02T21:32:19.917Z,-6.10
2019-01-02T21:34:48.808Z,-6.20
2019-01-02T21:37:17.689Z,-6.30
2019-01-02T21:39:46.683Z,-6.30
2019-01-02T21:42:15.525Z,-6.40
2019-01-02T21:44:44.460Z,-6.40
2019-01-02T21:47:13.237Z,-6.30
2019-01-02T21:49:42.301Z,-6.30
2019-01-02T21:52:11.293Z,-6.20
2019-01-02T21:54:41.101Z,-6.30
2019-01-02T21:57:10.355Z,-6.20
2019-01-02T21:59:39.159Z,-6.20
2019-01-02T22:02:08.157Z,-6.10
2019-01-02T22:04:37.257Z,-6.10
2019-01-02T22:07:06.139Z,-6.10
2019-01-02T22:09:34.913Z,-6.20
2019-01-02T22:12:03.765Z,-6.40
2019-01-02T22:14:32.561Z,-6.50
2019-01-02T22:17:01.341Z,-6.60
2019-01-02T22:19:30.149Z,-6.70
2019-01-02T22:21:59.042Z,-6.70
2019-01-02T22:24:27.814Z,-6.70
2019-01-02T22:26:56.598Z,-6.80
2019-01-02T22:29:25.388Z,-6.80
2019-01-02T22:31:54.241Z,-6.90
2019-01-02T22:34:23.085Z,-6.90
2019-01-02T22:36:51.930Z,-6.90
2019-01-02T22:39:20.715Z,-6.90
2019-01-02T22:41:49.495Z,-7.00
2019-01-02T22:44:18.300Z,-6.90
2019-01-02T22:46:47.161Z,-6.90
2019-01-02T22:49:15.942Z,-7.00
2019-01-02T22:51:44.716Z,-7.00
2019-01-02T22:54:13.576Z,-7.00
2019-01-02T22:56:42.341Z,-7.10
2019-01-02T22:59:11.125Z,-7.10
2019-01-02T23:01:45.089Z,-7.20
2019-01-02T23:04:31.621Z,-7.40
2019-01-02T23:07:18.226Z,-7.50
2019-01-02T23:10:05.401Z,-7.40
2019-01-02T23:12:53.258Z,-7.30
2019-01-02T23:15:46.298Z,-7.10
2019-01-02T23:18:37.269Z,-6.90
2019-01-02T23:21:34.926Z,-6.80
2019-01-02T23:24:21.878Z,-6.70
2019-01-02T23:27:08.450Z,-6.60
2019-01-02T23:29:54.366Z,-6.50
2019-01-02T23:32:53.183Z,-6.40
2019-01-02T23:35:41.017Z,-6.20
2019-01-02T23:38:37.961Z,-6.10
2019-01-02T23:41:24.708Z,-5.90
2019-01-02T23:44:24.626Z,-5.70
2019-01-02T23:47:27.810Z,-5.70
2019-01-02T23:50:10.662Z,-5.60
2019-01-02T23:53:13.814Z,-5.30
2019-01-02T23:56:16.623Z,-5.10
2019-01-02T23:59:09.295Z,-4.90
